createdAt,value
2023-03-20T00:02:03.227Z,-2.92
2023-03-20T00:04:30.808Z,-2.96
2023-03-20T00:06:58.306Z,-2.99
2023-03-20T00:09:28.618Z,-3.02
2023-03-20T00:11:56.768Z,-3.05
2023-03-20T00:14:25.262Z,-3.09
2023-03-20T00:16:53.158Z,-3.14
2023-03-20T00:19:26.361Z,-3.15
2023-03-20T00:21:55.244Z,-3.13
2023-03-20T00:24:23.019Z,-3.12
2023-03-20T00:26:51.882Z,-3.10
2023-03-20T00:29:27.878Z,-3.09
2023-03-20T00:31:56.099Z,-3.07
2023-03-20T00:34:26.142Z,-3.07
2023-03-20T00:36:54.683Z,-3.08
2023-03-20T00:39:22.284Z,-3.09
2023-03-20T00:41:56.688Z,-3.08
2023-03-20T00:44:26.749Z,-3.09
2023-03-20T00:47:18.688Z,-3.11
2023-03-20T00:49:51.701Z,-3.12
2023-03-20T00:52:20.376Z,-3.14
2023-03-20T00:54:47.447Z,-3.14
2023-03-20T00:57:18.151Z,-3.15
2023-03-20T00:59:58.239Z,-3.16
2023-03-20T01:02:29.248Z,-3.20
2023-03-20T01:04:56.938Z,-3.22
2023-03-20T01:07:26.752Z,-3.25
2023-03-20T01:09:53.787Z,-3.28
2023-03-20T01:12:21.320Z,-3.30
2023-03-20T01:14:54.895Z,-3.31
2023-03-20T01:17:23.988Z,-3.32
2023-03-20T01:19:51.394Z,-3.33
2023-03-20T01:22:18.784Z,-3.33
2023-03-20T01:24:46.346Z,-3.33
2023-03-20T01:27:19.801Z,-3.30
2023-03-20T01:29:47.582Z,-3.28
2023-03-20T01:32:20.176Z,-3.30
2023-03-20T01:34:53.258Z,-3.27
2023-03-20T01:37:27.100Z,-3.25
2023-03-20T01:39:57.703Z,-3.23
2023-03-20T01:42:25.397Z,-3.22
2023-03-20T01:44:52.992Z,-3.23
2023-03-20T01:47:24.289Z,-3.25
2023-03-20T01:50:17.026Z,-3.28
2023-03-20T01:52:46.394Z,-3.32
2023-03-20T01:55:14.040Z,-3.35
2023-03-20T01:57:44.451Z,-3.38
2023-03-20T02:00:15.738Z,-3.38
2023-03-20T02:02:46.615Z,-3.38
2023-03-20T02:05:28.362Z,-3.41
2023-03-20T02:08:18.074Z,-3.44
2023-03-20T02:10:47.245Z,-3.51
2023-03-20T02:13:23.154Z,-3.53
2023-03-20T02:16:13.436Z,-3.56
2023-03-20T02:18:59.195Z,-3.59
2023-03-20T02:21:54.308Z,-3.59
2023-03-20T02:24:55.163Z,-3.61
2023-03-20T02:27:28.951Z,-3.63
2023-03-20T02:30:26.040Z,-3.60
2023-03-20T02:33:42.617Z,-3.62
2023-03-20T02:36:25.027Z,-3.62
2023-03-20T02:38:52.338Z,-3.61
2023-03-20T02:41:41.528Z,-3.60
2023-03-20T02:44:08.682Z,-3.60
2023-03-20T02:46:54.949Z,-3.59
2023-03-20T02:49:42.977Z,-3.59
2023-03-20T02:52:18.779Z,-3.59
2023-03-20T02:55:08.073Z,-3.59
2023-03-20T02:58:04.959Z,-3.61
2023-03-20T03:00:41.212Z,-3.67
2023-03-20T03:03:32.361Z,-3.67
2023-03-20T03:06:09.901Z,-3.68
2023-03-20T03:08:45.079Z,-3.67
2023-03-20T03:11:16.701Z,-3.67
2023-03-20T03:13:52.034Z,-3.65
2023-03-20T03:16:30.990Z,-3.63
2023-03-20T03:19:19.132Z,-3.60
2023-03-20T03:21:48.463Z,-3.60
2023-03-20T03:24:42.704Z,-3.57
2023-03-20T03:27:20.089Z,-3.55
2023-03-20T03:30:01.382Z,-3.52
2023-03-20T03:32:36.986Z,-3.50
2023-03-20T03:35:07.778Z,-3.47
2023-03-20T03:38:24.362Z,-3.45
2023-03-20T03:41:10.596Z,-3.44
2023-03-20T03:44:08.947Z,-3.44
2023-03-20T03:46:44.946Z,-3.42
2023-03-20T03:49:19.603Z,-3.41
2023-03-20T03:51:51.381Z,-3.38
2023-03-20T03:54:25.724Z,-3.37
2023-03-20T03:57:16.953Z,-3.35
2023-03-20T03:59:49.914Z,-3.35
2023-03-20T04:02:19.971Z,-3.31
2023-03-20T04:04:51.484Z,-3.27
2023-03-20T04:07:19.268Z,-3.23
2023-03-20T04:09:46.515Z,-3.17
2023-03-20T04:12:34.960Z,-3.09
2023-03-20T04:15:03.398Z,-3.03
2023-03-20T04:17:33.082Z,-2.97
2023-03-20T04:20:01.286Z,-2.89
2023-03-20T04:22:28.529Z,-2.80
2023-03-20T04:24:59.621Z,-2.70
2023-03-20T04:27:29.166Z,-2.62
2023-03-20T04:29:57.566Z,-2.52
2023-03-20T04:32:43.560Z,-2.41
2023-03-20T04:35:31.211Z,-2.26
2023-03-20T04:38:03.846Z,-2.14
2023-03-20T04:40:33.703Z,-2.00
2023-03-20T04:43:01.065Z,-1.87
2023-03-20T04:45:28.299Z,-1.71
2023-03-20T04:47:55.689Z,-1.57
2023-03-20T04:50:24.053Z,-1.40
2023-03-20T04:52:52.713Z,-1.25
2023-03-20T04:55:20.828Z,-1.09
2023-03-20T04:57:49.650Z,-0.98
2023-03-20T05:00:18.981Z,-0.83
2023-03-20T05:02:47.141Z,-0.76
2023-03-20T05:05:16.378Z,-0.63
2023-03-20T05:07:44.335Z,-0.48
2023-03-20T05:10:17.771Z,-0.30
2023-03-20T05:13:00.202Z,-0.10
2023-03-20T05:15:50.448Z,0.06
2023-03-20T05:18:32.422Z,0.21
2023-03-20T05:21:17.466Z,0.36
2023-03-20T05:24:11.808Z,0.58
2023-03-20T05:26:58.205Z,0.82
2023-03-20T05:29:44.109Z,1.08
2023-03-20T05:32:33.106Z,1.42
2023-03-20T05:35:29.600Z,1.82
2023-03-20T05:38:22.957Z,2.22
2023-03-20T05:41:04.253Z,2.78
2023-03-20T05:43:52.146Z,3.46
2023-03-20T05:46:33.934Z,3.98
2023-03-20T05:49:22.157Z,4.71
2023-03-20T05:52:17.527Z,5.92
2023-03-20T05:55:13.705Z,6.64
2023-03-20T05:57:52.402Z,8.05
2023-03-20T06:00:47.160Z,8.70
2023-03-20T06:03:33.525Z,9.35
2023-03-20T06:06:08.882Z,9.50
2023-03-20T06:08:36.949Z,9.82
2023-03-20T06:11:04.706Z,9.87
2023-03-20T06:13:35.899Z,10.11
2023-03-20T06:16:05.618Z,10.25
2023-03-20T06:18:33.210Z,10.35
2023-03-20T06:21:00.556Z,10.64
2023-03-20T06:23:31.805Z,11.17
2023-03-20T06:26:01.380Z,11.70
2023-03-20T06:28:30.415Z,12.16
2023-03-20T06:31:02.999Z,12.96
2023-03-20T06:33:30.376Z,13.81
2023-03-20T06:36:01.021Z,14.34
2023-03-20T06:38:31.719Z,14.56
2023-03-20T06:41:04.520Z,14.35
2023-03-20T06:43:32.631Z,14.41
2023-03-20T06:46:00.832Z,14.38
2023-03-20T06:48:30.653Z,14.19
2023-03-20T06:50:57.960Z,14.03
2023-03-20T06:53:31.266Z,13.77
2023-03-20T06:56:07.146Z,13.19
2023-03-20T06:58:34.656Z,13.10
2023-03-20T07:01:01.993Z,12.99
2023-03-20T07:03:30.591Z,14.14
2023-03-20T07:05:58.944Z,15.22
2023-03-20T07:08:26.556Z,15.94
2023-03-20T07:10:55.654Z,15.76
2023-03-20T07:13:23.084Z,16.25
2023-03-20T07:16:03.773Z,16.31
2023-03-20T07:18:37.389Z,16.28
2023-03-20T07:21:06.998Z,15.97
2023-03-20T07:23:36.078Z,15.91
2023-03-20T07:26:04.311Z,15.43
2023-03-20T07:28:32.781Z,14.94
2023-03-20T07:31:24.582Z,15.15
2023-03-20T07:34:05.010Z,15.08
2023-03-20T07:36:34.306Z,15.42
2023-03-20T07:39:01.615Z,15.44
2023-03-20T07:41:31.506Z,16.04
2023-03-20T07:44:08.169Z,16.05
2023-03-20T07:46:48.456Z,16.57
2023-03-20T07:49:20.944Z,16.71
2023-03-20T07:51:50.109Z,17.99
2023-03-20T07:54:18.329Z,18.17
2023-03-20T07:56:46.021Z,18.46
2023-03-20T07:59:14.448Z,18.98
2023-03-20T08:01:42.006Z,18.77
2023-03-20T08:04:09.986Z,19.53
2023-03-20T08:06:39.821Z,19.69
2023-03-20T08:09:07.774Z,19.07
2023-03-20T08:11:35.378Z,18.69
2023-03-20T08:14:02.891Z,18.79
2023-03-20T08:16:30.860Z,19.48
2023-03-20T08:19:01.579Z,19.09
2023-03-20T08:21:30.338Z,19.57
2023-03-20T08:23:58.573Z,20.15
2023-03-20T08:26:26.166Z,20.54
2023-03-20T08:28:53.761Z,20.58
2023-03-20T08:31:21.147Z,20.99
2023-03-20T08:33:49.073Z,21.26
2023-03-20T08:36:19.856Z,21.44
2023-03-20T08:38:49.373Z,21.63
2023-03-20T08:41:18.537Z,21.10
2023-03-20T08:43:46.925Z,21.31
2023-03-20T08:46:14.224Z,21.53
2023-03-20T08:48:42.054Z,21.06
2023-03-20T08:51:09.702Z,20.76
2023-03-20T08:53:37.075Z,21.09
2023-03-20T08:56:05.603Z,21.74
2023-03-20T08:58:33.229Z,21.53
2023-03-20T09:01:08.901Z,20.54
2023-03-20T09:03:37.496Z,20.01
2023-03-20T09:06:09.439Z,19.72
2023-03-20T09:08:37.360Z,20.05
2023-03-20T09:11:05.596Z,19.82
2023-03-20T09:13:33.174Z,19.28
2023-03-20T09:16:01.307Z,18.98
2023-03-20T09:18:28.918Z,19.40
2023-03-20T09:20:56.991Z,18.78
2023-03-20T09:23:24.505Z,18.20
2023-03-20T09:25:52.163Z,18.84
2023-03-20T09:28:20.014Z,19.91
2023-03-20T09:30:48.887Z,20.30
2023-03-20T09:33:16.954Z,20.86
2023-03-20T09:35:44.739Z,21.95
2023-03-20T09:38:12.986Z,21.70
2023-03-20T09:40:53.835Z,21.89
2023-03-20T09:43:49.100Z,22.41
2023-03-20T09:46:34.537Z,23.23
2023-03-20T09:49:17.390Z,22.85
2023-03-20T09:52:04.982Z,22.07
2023-03-20T09:54:53.133Z,21.90
2023-03-20T09:57:32.917Z,21.65
2023-03-20T10:00:08.745Z,22.76
2023-03-20T10:03:02.406Z,22.09
2023-03-20T10:05:59.701Z,22.21
2023-03-20T10:08:34.839Z,21.22
2023-03-20T10:11:11.121Z,21.60
2023-03-20T10:13:48.708Z,21.95
2023-03-20T10:16:29.479Z,20.87
2023-03-20T10:19:00.014Z,19.96
2023-03-20T10:21:43.591Z,19.72
2023-03-20T10:24:44.824Z,18.38
2023-03-20T10:27:34.395Z,17.56
2023-03-20T10:30:26.509Z,16.85
2023-03-20T10:33:28.167Z,17.11
2023-03-20T10:36:14.208Z,17.56
2023-03-20T10:38:45.929Z,17.87
2023-03-20T10:41:30.881Z,18.31
2023-03-20T10:44:00.670Z,18.12
2023-03-20T10:46:36.046Z,17.94
2023-03-20T10:49:15.944Z,17.85
2023-03-20T10:52:00.629Z,17.58
2023-03-20T10:54:34.253Z,16.94
2023-03-20T10:57:08.476Z,16.84
2023-03-20T10:59:42.526Z,17.05
2023-03-20T11:02:12.795Z,16.86
2023-03-20T11:04:41.249Z,17.17
2023-03-20T11:07:23.446Z,17.45
2023-03-20T11:10:06.988Z,17.66
2023-03-20T11:12:39.824Z,17.26
2023-03-20T11:15:38.016Z,16.74
2023-03-20T11:18:08.440Z,16.70
2023-03-20T11:20:42.116Z,16.70
2023-03-20T11:23:17.121Z,16.79
2023-03-20T11:25:56.178Z,16.16
2023-03-20T11:28:31.794Z,15.87
2023-03-20T11:31:05.401Z,15.90
2023-03-20T11:33:38.855Z,15.22
2023-03-20T11:36:33.477Z,15.34
2023-03-20T11:39:11.778Z,15.79
2023-03-20T11:41:49.807Z,16.25
2023-03-20T11:44:36.982Z,16.20
2023-03-20T11:47:06.857Z,15.92
2023-03-20T11:49:48.646Z,16.09
2023-03-20T11:52:22.480Z,16.74
2023-03-20T11:55:02.432Z,17.50
2023-03-20T11:57:47.162Z,16.99
2023-03-20T12:00:24.288Z,16.69
2023-03-20T12:02:52.594Z,16.36
2023-03-20T12:05:40.617Z,15.22
2023-03-20T12:08:21.303Z,15.32
2023-03-20T12:11:17.914Z,15.62
2023-03-20T12:13:52.495Z,15.69
2023-03-20T12:16:28.341Z,15.33
2023-03-20T12:19:00.969Z,15.49
2023-03-20T12:21:43.872Z,15.74
2023-03-20T12:24:36.918Z,15.75
2023-03-20T12:27:05.788Z,15.61
2023-03-20T12:29:48.024Z,15.81
2023-03-20T12:32:28.757Z,15.33
2023-03-20T12:35:16.734Z,15.34
2023-03-20T12:37:44.625Z,15.70
2023-03-20T12:40:21.119Z,15.22
2023-03-20T12:43:05.665Z,14.43
2023-03-20T12:45:44.702Z,13.90
2023-03-20T12:48:20.793Z,13.60
2023-03-20T12:51:03.672Z,13.56
2023-03-20T12:53:52.381Z,13.89
2023-03-20T12:56:33.877Z,14.27
2023-03-20T12:59:36.355Z,14.43
2023-03-20T13:02:30.685Z,14.53
2023-03-20T13:05:07.666Z,14.42
2023-03-20T13:08:03.480Z,13.95
2023-03-20T13:10:39.977Z,13.54
2023-03-20T13:13:54.733Z,13.22
2023-03-20T13:16:43.927Z,13.43
2023-03-20T13:19:25.310Z,13.63
2023-03-20T13:22:06.871Z,13.90
2023-03-20T13:25:01.928Z,13.64
2023-03-20T13:27:53.624Z,13.13
2023-03-20T13:30:51.126Z,12.39
2023-03-20T13:33:21.606Z,11.71
2023-03-20T13:36:18.952Z,11.29
2023-03-20T13:38:52.606Z,10.92
2023-03-20T13:41:20.557Z,10.78
2023-03-20T13:43:55.245Z,10.77
2023-03-20T13:46:50.196Z,10.94
2023-03-20T13:49:34.262Z,11.02
2023-03-20T13:52:29.978Z,11.00
2023-03-20T13:55:19.611Z,11.02
2023-03-20T13:58:21.444Z,11.06
2023-03-20T14:01:16.949Z,10.63
2023-03-20T14:03:46.953Z,10.30
2023-03-20T14:06:27.231Z,10.41
2023-03-20T14:08:57.658Z,10.69
2023-03-20T14:11:35.849Z,10.51
2023-03-20T14:14:13.851Z,10.41
2023-03-20T14:16:45.000Z,10.18
2023-03-20T14:19:21.955Z,10.15
2023-03-20T14:21:53.663Z,9.90
2023-03-20T14:24:24.379Z,9.88
2023-03-20T14:27:05.900Z,9.37
2023-03-20T14:29:39.174Z,9.23
2023-03-20T14:32:13.992Z,9.11
2023-03-20T14:35:19.037Z,9.29
2023-03-20T14:38:23.829Z,9.29
2023-03-20T14:40:58.204Z,8.90
2023-03-20T14:43:59.812Z,8.34
2023-03-20T14:46:39.565Z,8.30
2023-03-20T14:49:48.744Z,7.98
2023-03-20T14:52:59.495Z,7.89
2023-03-20T14:55:28.321Z,7.75
2023-03-20T14:57:57.310Z,7.73
2023-03-20T15:00:34.319Z,7.63
2023-03-20T15:03:12.026Z,7.57
2023-03-20T15:05:40.743Z,7.48
2023-03-20T15:08:19.527Z,7.39
2023-03-20T15:11:02.319Z,7.26
2023-03-20T15:13:31.406Z,7.29
2023-03-20T15:16:11.236Z,7.31
2023-03-20T15:18:47.339Z,7.14
2023-03-20T15:21:37.108Z,7.23
2023-03-20T15:24:06.790Z,7.20
2023-03-20T15:26:36.808Z,7.17
2023-03-20T15:29:08.514Z,7.11
2023-03-20T15:31:40.207Z,7.03
2023-03-20T15:34:16.076Z,6.98
2023-03-20T15:36:48.385Z,6.88
2023-03-20T15:39:25.071Z,6.83
2023-03-20T15:42:00.411Z,6.66
2023-03-20T15:44:36.904Z,6.59
2023-03-20T15:47:12.774Z,6.43
2023-03-20T15:49:41.943Z,6.28
2023-03-20T15:52:31.013Z,6.24
2023-03-20T15:55:03.909Z,6.11
2023-03-20T15:57:45.382Z,5.99
2023-03-20T16:00:17.113Z,5.87
2023-03-20T16:02:48.541Z,5.77
2023-03-20T16:05:18.747Z,5.68
2023-03-20T16:07:46.850Z,5.58
2023-03-20T16:10:20.042Z,5.51
2023-03-20T16:12:54.949Z,5.42
2023-03-20T16:15:27.789Z,5.35
2023-03-20T16:17:57.283Z,5.21
2023-03-20T16:20:28.976Z,5.02
2023-03-20T16:23:03.871Z,4.84
2023-03-20T16:25:31.672Z,4.74
2023-03-20T16:28:00.130Z,4.67
2023-03-20T16:30:31.998Z,4.55
2023-03-20T16:33:05.742Z,4.46
2023-03-20T16:35:40.434Z,4.41
2023-03-20T16:38:33.054Z,4.42
2023-03-20T16:41:29.540Z,4.34
2023-03-20T16:43:58.012Z,4.26
2023-03-20T16:46:27.583Z,4.19
2023-03-20T16:49:17.739Z,4.11
2023-03-20T16:51:45.249Z,4.01
2023-03-20T16:54:21.710Z,3.95
2023-03-20T16:56:54.421Z,3.92
2023-03-20T16:59:22.904Z,3.82
2023-03-20T17:01:53.125Z,3.75
2023-03-20T17:04:24.380Z,3.67
2023-03-20T17:06:59.059Z,3.61
2023-03-20T17:09:30.545Z,3.55
2023-03-20T17:12:05.340Z,3.48
2023-03-20T17:14:33.282Z,3.42
2023-03-20T17:17:00.524Z,3.39
2023-03-20T17:19:27.664Z,3.34
2023-03-20T17:21:55.046Z,3.29
2023-03-20T17:24:22.370Z,3.25
2023-03-20T17:26:55.473Z,3.23
2023-03-20T17:29:22.830Z,3.20
2023-03-20T17:31:50.416Z,3.18
2023-03-20T17:34:17.653Z,3.15
2023-03-20T17:36:44.826Z,3.10
2023-03-20T17:39:21.113Z,3.05
2023-03-20T17:41:48.750Z,3.00
2023-03-20T17:44:15.839Z,2.91
2023-03-20T17:46:56.731Z,2.81
2023-03-20T17:49:27.749Z,2.67
2023-03-20T17:51:57.076Z,2.58
2023-03-20T17:54:24.417Z,2.50
2023-03-20T17:56:51.679Z,2.44
2023-03-20T17:59:18.921Z,2.40
2023-03-20T18:01:46.461Z,2.37
2023-03-20T18:04:14.083Z,2.37
2023-03-20T18:06:41.604Z,2.33
2023-03-20T18:09:13.704Z,2.28
2023-03-20T18:11:41.286Z,2.22
2023-03-20T18:14:08.527Z,2.13
2023-03-20T18:16:35.804Z,2.02
2023-03-20T18:19:03.873Z,1.90
2023-03-20T18:21:31.224Z,1.79
2023-03-20T18:23:58.289Z,1.66
2023-03-20T18:26:27.605Z,1.60
2023-03-20T18:28:57.451Z,1.54
2023-03-20T18:31:24.873Z,1.53
2023-03-20T18:33:53.316Z,1.49
2023-03-20T18:36:23.143Z,1.49
2023-03-20T18:38:51.830Z,1.53
2023-03-20T18:41:19.519Z,1.54
2023-03-20T18:43:49.149Z,1.53
2023-03-20T18:46:19.326Z,1.53
2023-03-20T18:48:47.850Z,1.53
2023-03-20T18:51:15.511Z,1.53
2023-03-20T18:53:43.092Z,1.49
2023-03-20T18:56:14.770Z,1.44
2023-03-20T18:58:42.572Z,1.38
2023-03-20T19:01:12.988Z,1.29
2023-03-20T19:03:42.883Z,1.22
2023-03-20T19:06:16.822Z,1.14
2023-03-20T19:08:45.325Z,1.07
2023-03-20T19:11:17.835Z,1.03
2023-03-20T19:13:49.743Z,1.00
2023-03-20T19:16:28.616Z,0.93
2023-03-20T19:18:59.098Z,0.90
2023-03-20T19:21:26.766Z,0.86
2023-03-20T19:23:55.570Z,0.84
2023-03-20T19:26:24.903Z,0.83
2023-03-20T19:28:54.024Z,0.84
2023-03-20T19:31:21.836Z,0.83
2023-03-20T19:33:49.300Z,0.83
2023-03-20T19:36:31.708Z,0.82
2023-03-20T19:39:01.689Z,0.79
2023-03-20T19:41:29.440Z,0.83
2023-03-20T19:43:57.115Z,0.85
2023-03-20T19:46:42.533Z,0.89
2023-03-20T19:49:30.168Z,0.88
2023-03-20T19:51:58.284Z,0.84
2023-03-20T19:54:25.526Z,0.81
2023-03-20T19:56:52.774Z,0.80
2023-03-20T19:59:21.108Z,0.80
2023-03-20T20:01:48.493Z,0.82
2023-03-20T20:04:16.459Z,0.79
2023-03-20T20:06:46.651Z,0.77
2023-03-20T20:09:14.646Z,0.76
2023-03-20T20:11:41.715Z,0.75
2023-03-20T20:14:10.339Z,0.74
2023-03-20T20:16:42.773Z,0.73
2023-03-20T20:19:10.445Z,0.72
2023-03-20T20:24:25.544Z,0.69
2023-03-20T20:27:14.574Z,0.67
2023-03-20T20:29:43.332Z,0.64
2023-03-20T20:32:11.058Z,0.65
2023-03-20T20:35:30.770Z,0.66
2023-03-20T20:40:17.278Z,0.80
2023-03-20T20:42:47.528Z,0.79
2023-03-20T20:45:15.712Z,0.76
2023-03-20T20:47:47.230Z,0.76
2023-03-20T20:50:16.798Z,0.75
2023-03-20T20:52:44.553Z,0.74
2023-03-20T20:55:22.498Z,0.74
2023-03-20T20:57:53.188Z,0.77
2023-03-20T21:00:27.447Z,0.82
2023-03-20T21:02:58.704Z,0.87
2023-03-20T21:05:27.176Z,0.89
2023-03-20T21:07:54.591Z,0.89
2023-03-20T21:10:22.365Z,0.86
2023-03-20T21:12:59.170Z,0.79
2023-03-20T21:15:29.979Z,0.72
2023-03-20T21:18:01.504Z,0.66
2023-03-20T21:20:30.835Z,0.61
2023-03-20T21:22:58.835Z,0.59
2023-03-20T21:25:39.070Z,0.59
2023-03-20T21:28:07.444Z,0.64
2023-03-20T21:30:34.657Z,0.64
2023-03-20T21:33:03.341Z,0.65
2023-03-20T21:35:30.697Z,0.61
2023-03-20T21:38:47.541Z,0.61
2023-03-20T21:40:45.607Z,0.65
2023-03-20T21:43:14.445Z,0.62
2023-03-20T21:49:22.879Z,0.60
2023-03-20T21:52:28.931Z,0.57
2023-03-20T22:00:14.990Z,0.42
2023-03-20T22:02:29.046Z,0.38
2023-03-20T22:05:41.787Z,0.39
2023-03-20T22:08:57.854Z,0.35
2023-03-20T22:19:56.229Z,0.28
2023-03-20T22:22:56.333Z,0.25
2023-03-20T22:31:10.625Z,0.18
2023-03-20T22:36:37.833Z,0.11
2023-03-20T22:39:16.044Z,0.10
2023-03-20T22:42:12.393Z,0.09
2023-03-20T22:46:59.468Z,0.08
2023-03-20T22:49:26.730Z,0.05
2023-03-20T22:52:14.802Z,0.05
2023-03-20T22:54:41.924Z,0.05
2023-03-20T22:57:09.430Z,0.03
2023-03-20T22:59:36.786Z,-0.02
2023-03-20T23:02:04.161Z,-0.04
2023-03-20T23:04:31.153Z,-0.09
2023-03-20T23:06:58.416Z,-0.09
2023-03-20T23:09:25.432Z,-0.09
2023-03-20T23:11:52.606Z,-0.09
2023-03-20T23:14:22.004Z,-0.12
2023-03-20T23:16:50.420Z,-0.11
2023-03-20T23:19:17.713Z,-0.16
2023-03-20T23:21:45.018Z,-0.23
2023-03-20T23:24:12.194Z,-0.27
2023-03-20T23:26:39.315Z,-0.29
2023-03-20T23:29:06.790Z,-0.28
2023-03-20T23:31:36.990Z,-0.28
2023-03-20T23:34:04.059Z,-0.30
2023-03-20T23:36:38.246Z,-0.35
2023-03-20T23:39:07.895Z,-0.40
2023-03-20T23:42:04.675Z,-0.37
2023-03-20T23:44:23.504Z,-0.36
2023-03-20T23:46:50.786Z,-0.34
2023-03-20T23:49:17.903Z,-0.34
2023-03-20T23:51:44.943Z,-0.35
2023-03-20T23:54:12.581Z,-0.38
2023-03-20T23:56:40.420Z,-0.38
2023-03-20T23:59:20.493Z,-0.31
